Amelia Court House, Virginia
Current Conditions -  °F | °C
As of 3:55 AM on Wednesday 22 Oct 2014 (Local Time) from KW81 Reporting Station
Overcast Overcast  
Wind Chill: 52°   Ceiling: 4500
Heat Index: 52°   Visibility: 10mi
Dew Point: 48°   Wind: 8mph
Humidity: 86%   Direction: 300°WNW
Pressure: 29.9"   Gusts: NA
Location:  37.34°N, 77.98°W
Report Text: KW81 220755Z AUTO 30007KT 10SM SCT029 BKN045 OVC050 11/09 A2990 RMK AO1 T01100087
Loading
Personal Weather Stations






























Interactive Weather Map
Tropical Storm Tracking
New forecast layout! Learn more

10-Day Weather Forecast

Advertisements
Track Severe Weather on mobile